Forside
METAR-TAF:

METAR-TAF

Lufthavne :

Košice, Slovakiet

Breddekreds: 48-39-47N, længdekreds: 021-14-28E, højde: 232 m

Aktuelle vejr

Denne rapport blev lavet for 27 minutter siden, kl. 00:00 UTC
Vind 3 kt fra syd
Temperatur 11°C
Fugtighed 82%
Tryk 1026 hPa
Sigt 10 km eller mere
ingen skyer under 1500m og ingen cumulonimbus

METAR: LZKZ 130000Z 19003KT CAVOK 11/08 Q1026 NOSIG

Tid: 02:27 (00:27 UTC)

Vejrudsigter

Denne rapport blev lavet for 1 time og 12 minutter siden, kl. 23:15 UTC
Foreløbig gælder fra 13 på 00 UTC til 14 på 00 UTC
Vind 2 kt fra varierende retninger
Sigt 10 km eller mere
ingen skyer under 1500m og ingen cumulonimbus
Sandsynlighed 40% :
Midlertidig
fra 13 på 01 UTC til 13 på 06 UTC
Sigt: 5000 m
Brudte skyer i en højde af 1000 ft
Let tåge
Midlertidig
fra 13 på 11 UTC til 13 på 15 UTC
Vind 6 kt fra sydsydøst

TAF: LZKZ 122315Z 1300/1400 VRB02KT CAVOK PROB40 TEMPO 1301/1306 5000 MIFG BKN010 TEMPO 1311/1315 16006KT

Vejrobservationer og prognoser fra mere end 4000 lufthavne (METAR og TAF).

De gule og røde prikker repræsenterer de meteorologiske stationer.

Flyt musen over at se navnet på stationen.

Så klik over at se vejr observationer og prognoser.

At skifte det kort: Klik på de grønne knapper med et sort kors for at zoome ind; på den grønne knap med en bindestreg for at zoome ud; eller på de grønne pile for tilstødende kort.


METAR-TAF: